createdAt,value
2018-09-23T00:01:13.393Z,31.87
2018-09-23T00:03:49.291Z,31.86
2018-09-23T00:06:25.292Z,31.87
2018-09-23T00:09:01.561Z,31.87
2018-09-23T00:11:37.390Z,31.87
2018-09-23T00:14:13.382Z,31.87
2018-09-23T00:16:49.592Z,31.86
2018-09-23T00:19:25.379Z,31.86
2018-09-23T00:22:01.381Z,31.85
2018-09-23T00:24:37.398Z,31.85
2018-09-23T00:27:13.376Z,31.84
2018-09-23T00:29:52.731Z,31.85
2018-09-23T00:32:29.232Z,31.85
2018-09-23T00:35:05.572Z,31.84
2018-09-23T00:37:41.403Z,31.83
2018-09-23T00:40:18.363Z,31.83
2018-09-23T00:42:54.385Z,31.84
2018-09-23T00:45:30.385Z,31.84
2018-09-23T00:48:06.337Z,31.82
2018-09-23T00:50:42.349Z,31.81
2018-09-23T00:53:19.524Z,31.81
2018-09-23T00:55:56.081Z,31.82
2018-09-23T00:58:32.222Z,31.80
2018-09-23T01:01:08.394Z,31.79
2018-09-23T01:03:44.320Z,31.78
2018-09-23T01:06:20.597Z,31.78
2018-09-23T01:11:26.634Z,31.75
2018-09-23T01:14:02.438Z,31.76
2018-09-23T01:16:38.408Z,31.75
2018-09-23T01:19:14.410Z,31.74
2018-09-23T01:21:50.752Z,31.74
2018-09-23T01:24:27.233Z,31.75
2018-09-23T01:27:03.590Z,31.73
2018-09-23T01:29:39.789Z,31.73
2018-09-23T01:32:15.597Z,31.72
2018-09-23T01:34:52.074Z,31.71
2018-09-23T01:37:28.259Z,31.71
2018-09-23T01:40:04.431Z,31.71
2018-09-23T01:42:41.173Z,31.70
2018-09-23T01:45:17.426Z,31.68
2018-09-23T01:47:53.805Z,31.67
2018-09-23T01:50:30.644Z,31.68
2018-09-23T01:53:06.442Z,31.66
2018-09-23T01:55:42.389Z,31.64
2018-09-23T01:58:18.405Z,31.64
2018-09-23T02:00:54.182Z,31.63
2018-09-23T02:03:30.255Z,31.63
2018-09-23T02:06:06.438Z,31.62
2018-09-23T02:08:42.384Z,31.60
2018-09-23T02:11:18.425Z,31.59
2018-09-23T02:13:54.370Z,31.58
2018-09-23T02:16:30.370Z,31.57
2018-09-23T02:19:06.601Z,31.57
2018-09-23T02:21:42.618Z,31.56
2018-09-23T02:24:19.164Z,31.55
2018-09-23T02:26:55.625Z,31.53
2018-09-23T02:29:31.759Z,31.48
2018-09-23T02:32:08.625Z,31.43
2018-09-23T02:34:44.801Z,31.37
2018-09-23T02:37:21.125Z,31.31
2018-09-23T02:39:57.218Z,31.26
2018-09-23T02:42:33.218Z,31.21
2018-09-23T02:45:10.245Z,31.19
2018-09-23T02:47:46.283Z,31.16
2018-09-23T02:50:22.279Z,31.14
2018-09-23T02:52:58.290Z,31.14
2018-09-23T02:55:34.469Z,31.14
2018-09-23T02:58:10.793Z,31.13
2018-09-23T03:00:48.200Z,31.14
2018-09-23T03:03:24.353Z,31.14
2018-09-23T03:06:00.629Z,31.12
2018-09-23T03:08:36.937Z,31.12
2018-09-23T03:11:13.285Z,31.12
2018-09-23T03:13:49.625Z,31.13
2018-09-23T03:16:25.442Z,31.11
2018-09-23T03:19:01.381Z,31.09
2018-09-23T03:21:37.349Z,31.09
2018-09-23T03:24:13.507Z,31.09
2018-09-23T03:26:50.378Z,31.08
2018-09-23T03:29:26.272Z,31.06
2018-09-23T03:32:02.284Z,31.06
2018-09-23T03:34:37.911Z,31.05
2018-09-23T03:37:13.830Z,31.05
2018-09-23T03:39:49.872Z,31.05
2018-09-23T03:42:26.216Z,31.05
2018-09-23T03:45:02.217Z,31.04
2018-09-23T03:47:38.325Z,31.05
2018-09-23T03:50:14.450Z,31.03
2018-09-23T03:52:50.503Z,31.04
2018-09-23T03:55:26.681Z,31.05
2018-09-23T03:58:02.546Z,31.06
2018-09-23T04:00:38.682Z,31.06
2018-09-23T04:03:14.379Z,31.05
2018-09-23T04:05:50.469Z,31.06
2018-09-23T04:08:26.679Z,31.07
2018-09-23T04:11:02.461Z,31.08
2018-09-23T04:13:38.609Z,31.08
2018-09-23T04:16:15.185Z,31.09
2018-09-23T04:18:51.614Z,31.10
2018-09-23T04:21:27.482Z,31.11
2018-09-23T04:24:03.665Z,31.12
2018-09-23T04:26:39.657Z,31.12
2018-09-23T04:29:15.662Z,31.14
2018-09-23T04:31:51.693Z,31.16
2018-09-23T04:34:27.665Z,31.17
2018-09-23T04:37:03.615Z,31.18
2018-09-23T04:39:39.670Z,31.19
2018-09-23T04:42:15.675Z,31.21
2018-09-23T04:44:51.912Z,31.23
2018-09-23T04:47:28.674Z,31.25
2018-09-23T04:50:04.497Z,31.27
2018-09-23T04:52:40.305Z,31.27
2018-09-23T04:55:16.520Z,31.28
2018-09-23T04:57:52.673Z,31.29
2018-09-23T05:00:28.849Z,31.30
2018-09-23T05:03:05.080Z,31.30
2018-09-23T05:05:41.200Z,31.31
2018-09-23T05:08:16.889Z,31.32
2018-09-23T05:10:52.681Z,31.33
2018-09-23T05:13:29.680Z,31.33
2018-09-23T05:16:05.792Z,31.33
2018-09-23T05:18:41.683Z,31.33
2018-09-23T05:21:17.488Z,31.33
2018-09-23T05:23:54.241Z,31.33
2018-09-23T05:26:30.525Z,31.33
2018-09-23T05:29:06.510Z,31.34
2018-09-23T05:31:42.356Z,31.33
2018-09-23T05:34:18.673Z,31.32
2018-09-23T05:36:54.429Z,31.32
2018-09-23T05:39:30.424Z,31.31
2018-09-23T05:42:06.680Z,31.30
2018-09-23T05:44:42.853Z,31.30
2018-09-23T05:47:18.870Z,31.30
2018-09-23T05:49:55.227Z,31.29
2018-09-23T05:52:31.425Z,31.27
2018-09-23T05:55:07.476Z,31.27
2018-09-23T05:57:43.439Z,31.26
2018-09-23T06:00:20.269Z,31.25
2018-09-23T06:02:56.383Z,31.24
2018-09-23T06:05:32.341Z,31.23
2018-09-23T06:08:08.272Z,31.22
2018-09-23T06:10:44.396Z,31.21
2018-09-23T06:13:20.706Z,31.19
2018-09-23T06:15:57.701Z,31.18
2018-09-23T06:18:33.781Z,31.17
2018-09-23T06:21:09.954Z,31.15
2018-09-23T06:23:46.353Z,31.17
2018-09-23T06:26:22.367Z,31.16
2018-09-23T06:28:58.713Z,31.16
2018-09-23T06:31:35.178Z,31.15
2018-09-23T06:34:11.314Z,31.15
2018-09-23T06:36:47.520Z,31.14
2018-09-23T06:39:23.547Z,31.13
2018-09-23T06:41:59.917Z,31.12
2018-09-23T06:44:36.193Z,31.08
2018-09-23T06:47:12.372Z,31.10
2018-09-23T06:49:48.413Z,31.09
2018-09-23T06:52:24.444Z,31.11
2018-09-23T06:55:00.502Z,31.10
2018-09-23T06:57:37.298Z,31.12
2018-09-23T07:00:13.450Z,31.13
2018-09-23T07:02:50.094Z,31.13
2018-09-23T07:05:26.359Z,31.14
2018-09-23T07:08:02.518Z,31.14
2018-09-23T07:10:39.336Z,31.13
2018-09-23T07:13:15.582Z,31.13
2018-09-23T07:15:51.581Z,31.14
2018-09-23T07:18:27.770Z,31.13
2018-09-23T07:21:03.726Z,31.13
2018-09-23T07:23:39.941Z,31.12
2018-09-23T07:26:16.389Z,31.12
2018-09-23T07:28:52.341Z,31.10
2018-09-23T07:31:28.588Z,31.10
2018-09-23T07:34:05.290Z,31.10
2018-09-23T07:36:41.604Z,31.08
2018-09-23T07:39:17.932Z,31.09
2018-09-23T07:41:54.026Z,31.08
2018-09-23T07:44:30.241Z,31.06
2018-09-23T07:47:06.502Z,31.04
2018-09-23T07:49:42.173Z,31.03
2018-09-23T07:52:17.906Z,31.02
2018-09-23T07:54:53.737Z,31.01
2018-09-23T07:57:29.584Z,31.00
2018-09-23T08:00:05.746Z,31.00
2018-09-23T08:02:41.751Z,30.99
2018-09-23T08:05:17.741Z,30.98
2018-09-23T08:07:53.573Z,30.97
2018-09-23T08:10:29.570Z,30.96
2018-09-23T08:13:05.952Z,30.94
2018-09-23T08:15:42.504Z,30.94
2018-09-23T08:18:19.485Z,30.93
2018-09-23T08:20:55.508Z,30.93
2018-09-23T08:23:31.573Z,30.91
2018-09-23T08:26:07.482Z,30.89
2018-09-23T08:28:43.604Z,30.89
2018-09-23T08:31:19.579Z,30.88
2018-09-23T08:33:55.913Z,30.87
2018-09-23T08:36:32.430Z,30.86
2018-09-23T08:39:09.585Z,30.85
2018-09-23T08:41:45.761Z,30.83
2018-09-23T08:44:21.757Z,30.82
2018-09-23T08:46:57.924Z,30.81
2018-09-23T08:49:33.969Z,30.80
2018-09-23T08:52:10.284Z,30.81
2018-09-23T08:54:46.401Z,30.80
2018-09-23T08:57:22.188Z,30.80
2018-09-23T08:59:58.382Z,30.77
2018-09-23T09:02:34.275Z,30.76
2018-09-23T09:05:10.568Z,30.76
2018-09-23T09:07:46.407Z,30.73
2018-09-23T09:10:22.592Z,30.73
2018-09-23T09:12:58.769Z,30.71
2018-09-23T09:15:35.047Z,30.71
2018-09-23T09:18:11.030Z,30.70
2018-09-23T09:20:48.005Z,30.68
2018-09-23T09:23:24.997Z,30.67
2018-09-23T09:26:01.466Z,30.67
2018-09-23T09:28:37.606Z,30.66
2018-09-23T09:31:13.621Z,30.64
2018-09-23T09:33:50.601Z,30.62
2018-09-23T09:36:26.605Z,30.61
2018-09-23T09:39:02.464Z,30.61
2018-09-23T09:41:38.610Z,30.59
2018-09-23T09:44:14.790Z,30.57
2018-09-23T09:46:50.435Z,30.55
2018-09-23T09:49:26.400Z,30.54
2018-09-23T09:52:02.452Z,30.54
2018-09-23T09:54:38.063Z,30.52
2018-09-23T09:57:14.382Z,30.51
2018-09-23T09:59:50.425Z,30.50
2018-09-23T10:02:26.453Z,30.49
2018-09-23T10:05:02.428Z,30.47
2018-09-23T10:07:38.425Z,30.47
2018-09-23T10:10:14.305Z,30.45
2018-09-23T10:12:50.432Z,30.43
2018-09-23T10:15:26.445Z,30.42
2018-09-23T10:18:02.594Z,30.40
2018-09-23T10:20:38.619Z,30.40
2018-09-23T10:23:14.848Z,30.38
2018-09-23T10:25:50.861Z,30.38
2018-09-23T10:28:27.265Z,30.36
2018-09-23T10:31:03.368Z,30.35
2018-09-23T10:33:39.457Z,30.33
2018-09-23T10:36:15.863Z,30.32
2018-09-23T10:38:52.000Z,30.32
2018-09-23T10:41:28.659Z,30.30
2018-09-23T10:44:04.630Z,30.30
2018-09-23T10:46:40.842Z,30.29
2018-09-23T10:49:16.815Z,30.28
2018-09-23T10:51:52.637Z,30.26
2018-09-23T10:54:28.630Z,30.26
2018-09-23T10:57:04.434Z,30.23
2018-09-23T10:59:40.458Z,30.24
2018-09-23T11:02:16.601Z,30.22
2018-09-23T11:04:52.837Z,30.22
2018-09-23T11:07:28.873Z,30.20
2018-09-23T11:10:04.833Z,30.19
2018-09-23T11:12:40.637Z,30.18
2018-09-23T11:15:17.107Z,30.18
2018-09-23T11:17:53.456Z,30.18
2018-09-23T11:20:29.262Z,30.16
2018-09-23T11:23:05.617Z,30.15
2018-09-23T11:25:41.474Z,30.14
2018-09-23T11:28:17.625Z,30.13
2018-09-23T11:30:53.824Z,30.12
2018-09-23T11:33:30.294Z,30.10
2018-09-23T11:36:06.297Z,30.10
2018-09-23T11:38:42.414Z,30.07
2018-09-23T11:41:18.815Z,30.07
2018-09-23T11:43:54.819Z,30.06
2018-09-23T11:46:31.053Z,30.05
2018-09-23T11:49:07.001Z,30.03
2018-09-23T11:51:42.837Z,30.01
2018-09-23T11:54:18.821Z,30.00
2018-09-23T11:56:54.863Z,29.99
2018-09-23T11:59:30.809Z,29.97
2018-09-23T12:02:08.024Z,29.96
2018-09-23T12:04:44.240Z,29.95
2018-09-23T12:07:20.474Z,29.93
2018-09-23T12:09:56.483Z,29.93
2018-09-23T12:12:32.350Z,29.91
2018-09-23T12:15:08.410Z,29.90
2018-09-23T12:17:44.661Z,29.87
2018-09-23T12:20:20.486Z,29.86
2018-09-23T12:22:56.558Z,29.85
2018-09-23T12:25:32.924Z,29.85
2018-09-23T12:28:09.424Z,29.84
2018-09-23T12:30:45.333Z,29.83
2018-09-23T12:33:21.451Z,29.80
2018-09-23T12:36:01.483Z,29.80
2018-09-23T12:38:37.654Z,29.78
2018-09-23T12:41:13.638Z,29.79
2018-09-23T12:43:49.848Z,29.78
2018-09-23T12:46:26.022Z,29.77
2018-09-23T12:49:02.582Z,29.75
2018-09-23T12:51:38.580Z,29.74
2018-09-23T12:54:14.698Z,29.73
2018-09-23T12:56:50.481Z,29.69
2018-09-23T12:59:26.798Z,29.68
2018-09-23T13:02:02.497Z,29.68
2018-09-23T13:04:38.690Z,29.66
2018-09-23T13:07:14.064Z,29.64
2018-09-23T13:09:50.637Z,29.64
2018-09-23T13:12:26.683Z,29.61
2018-09-23T13:15:02.859Z,29.58
2018-09-23T13:17:38.859Z,29.57
2018-09-23T13:20:14.867Z,29.55
2018-09-23T13:22:50.888Z,29.55
2018-09-23T13:25:27.023Z,29.52
2018-09-23T13:28:02.874Z,29.49
2018-09-23T13:30:39.025Z,29.48
2018-09-23T13:33:14.686Z,29.46
2018-09-23T13:35:50.857Z,29.45
2018-09-23T13:38:26.675Z,29.43
2018-09-23T13:41:02.547Z,29.43
2018-09-23T13:43:38.864Z,29.41
2018-09-23T13:46:15.669Z,29.39
2018-09-23T13:48:51.885Z,29.35
2018-09-23T13:51:28.047Z,29.30
2018-09-23T13:54:04.054Z,29.25
2018-09-23T13:56:39.867Z,29.23
2018-09-23T13:59:15.889Z,29.18
2018-09-23T14:01:51.879Z,29.15
2018-09-23T14:04:27.887Z,29.10
2018-09-23T14:07:04.062Z,29.06
2018-09-23T14:09:40.061Z,29.03
2018-09-23T14:12:15.913Z,29.00
2018-09-23T14:14:52.048Z,28.96
2018-09-23T14:17:28.547Z,28.92
2018-09-23T14:20:04.923Z,28.89
2018-09-23T14:22:40.533Z,28.87
2018-09-23T14:25:16.709Z,28.84
2018-09-23T14:27:53.535Z,28.80
2018-09-23T14:30:29.674Z,28.78
2018-09-23T14:33:05.892Z,28.75
2018-09-23T14:35:41.682Z,28.71
2018-09-23T14:38:17.705Z,28.68
2018-09-23T14:40:53.705Z,28.66
2018-09-23T14:43:29.800Z,28.64
2018-09-23T14:46:05.711Z,28.59
2018-09-23T14:48:41.563Z,28.57
2018-09-23T14:51:17.610Z,28.56
2018-09-23T14:53:53.690Z,28.54
2018-09-23T14:56:29.601Z,28.52
2018-09-23T14:59:05.714Z,28.49
2018-09-23T15:01:41.532Z,28.47
2018-09-23T15:04:17.635Z,28.47
2018-09-23T15:06:53.550Z,28.45
2018-09-23T15:09:29.964Z,28.44
2018-09-23T15:12:05.719Z,28.43
2018-09-23T15:14:43.893Z,28.41
2018-09-23T15:17:19.964Z,28.40
2018-09-23T15:19:56.079Z,28.39
2018-09-23T15:22:32.690Z,28.39
2018-09-23T15:25:08.898Z,28.38
2018-09-23T15:27:44.697Z,28.35
2018-09-23T15:30:20.534Z,28.34
2018-09-23T15:32:56.760Z,28.34
2018-09-23T15:35:33.170Z,28.33
2018-09-23T15:38:09.494Z,28.32
2018-09-23T15:40:45.474Z,28.31
2018-09-23T15:43:21.897Z,28.30
2018-09-23T15:45:57.873Z,28.29
2018-09-23T15:48:34.140Z,28.29
2018-09-23T15:51:10.381Z,28.29
2018-09-23T15:53:46.753Z,28.28
2018-09-23T15:56:22.961Z,28.27
2018-09-23T15:58:59.192Z,28.27
2018-09-23T16:01:35.721Z,28.28
2018-09-23T16:04:12.216Z,28.27
2018-09-23T16:06:48.437Z,28.28
2018-09-23T16:09:24.556Z,28.26
2018-09-23T16:12:00.535Z,28.26
2018-09-23T16:14:36.432Z,28.27
2018-09-23T16:17:12.549Z,28.29
2018-09-23T16:19:48.657Z,28.29
2018-09-23T16:22:24.554Z,28.32
2018-09-23T16:25:00.685Z,28.33
2018-09-23T16:27:36.407Z,28.33
2018-09-23T16:30:12.672Z,28.34
2018-09-23T16:32:49.670Z,28.37
2018-09-23T16:35:27.349Z,28.37
2018-09-23T16:38:03.466Z,28.37
2018-09-23T16:40:40.629Z,28.39
2018-09-23T16:43:17.182Z,28.41
2018-09-23T16:45:54.646Z,28.44
2018-09-23T16:48:32.479Z,28.46
2018-09-23T16:51:08.559Z,28.48
2018-09-23T16:53:44.636Z,28.48
2018-09-23T16:56:21.105Z,28.52
2018-09-23T16:58:57.488Z,28.53
2018-09-23T17:01:33.513Z,28.54
2018-09-23T17:04:09.925Z,28.56
2018-09-23T17:06:45.933Z,28.58
2018-09-23T17:09:21.965Z,28.62
2018-09-23T17:11:58.762Z,28.64
2018-09-23T17:14:34.769Z,28.67
2018-09-23T17:17:11.586Z,28.68
2018-09-23T17:19:47.943Z,28.71
2018-09-23T17:22:23.774Z,28.71
2018-09-23T17:24:59.932Z,28.73
2018-09-23T17:27:35.763Z,28.76
2018-09-23T17:30:11.853Z,28.78
2018-09-23T17:32:47.941Z,28.79
2018-09-23T17:35:24.608Z,28.80
2018-09-23T17:38:00.695Z,28.82
2018-09-23T17:40:36.625Z,28.85
2018-09-23T17:43:12.700Z,28.87
2018-09-23T17:45:48.721Z,28.91
2018-09-23T17:48:24.962Z,28.93
2018-09-23T18:04:03.811Z,29.15
2018-09-23T18:06:39.897Z,29.16
2018-09-23T18:09:15.956Z,29.14
2018-09-23T18:11:52.173Z,29.07
2018-09-23T18:14:28.116Z,29.02
2018-09-23T18:17:04.168Z,29.01
2018-09-23T18:19:40.173Z,28.99
2018-09-23T18:22:16.491Z,28.99
2018-09-23T18:24:52.570Z,29.00
2018-09-23T18:27:26.697Z,29.00
2018-09-23T18:30:02.443Z,29.00
2018-09-23T18:32:38.645Z,28.97
2018-09-23T18:35:14.802Z,29.01
2018-09-23T18:37:50.787Z,29.02
2018-09-23T18:40:26.791Z,29.02
2018-09-23T18:43:02.621Z,29.05
2018-09-23T18:45:38.791Z,29.05
2018-09-23T18:48:14.685Z,29.05
2018-09-23T18:50:50.989Z,29.06
2018-09-23T18:53:27.985Z,29.07
2018-09-23T18:56:04.823Z,29.09
2018-09-23T18:58:41.228Z,29.10
2018-09-23T19:01:17.423Z,29.12
2018-09-23T19:03:53.200Z,29.12
2018-09-23T19:06:29.420Z,29.16
2018-09-23T19:09:06.548Z,29.19
2018-09-23T19:11:43.769Z,29.20
2018-09-23T19:14:19.796Z,29.22
2018-09-23T19:16:55.697Z,29.23
2018-09-23T19:19:36.094Z,29.21
2018-09-23T19:22:16.638Z,29.28
2018-09-23T19:24:52.608Z,29.31
2018-09-23T19:27:28.419Z,29.34
2018-09-23T19:30:04.612Z,29.38
2018-09-23T19:32:41.786Z,29.40
2018-09-23T19:35:18.176Z,29.44
2018-09-23T19:37:54.089Z,29.45
2018-09-23T19:40:30.187Z,29.49
2018-09-23T19:43:06.100Z,29.52
2018-09-23T19:45:42.197Z,29.56
2018-09-23T19:48:18.608Z,29.56
2018-09-23T19:50:54.676Z,29.60
2018-09-23T19:53:31.012Z,29.64
2018-09-23T19:56:07.176Z,29.65
2018-09-23T19:58:43.173Z,29.70
2018-09-23T20:01:19.789Z,29.73
2018-09-23T20:03:55.943Z,29.74
2018-09-23T20:06:31.891Z,29.77
2018-09-23T20:09:08.830Z,29.80
2018-09-23T20:11:44.999Z,29.81
2018-09-23T20:14:21.448Z,29.84
2018-09-23T20:17:30.869Z,29.80
2018-09-23T20:20:06.997Z,29.84
2018-09-23T20:22:43.227Z,29.87
2018-09-23T20:25:20.037Z,29.92
2018-09-23T20:27:56.461Z,29.93
2018-09-23T20:30:32.494Z,29.95
2018-09-23T20:33:08.693Z,29.96
2018-09-23T20:35:45.638Z,29.98
2018-09-23T20:38:21.588Z,29.99
2018-09-23T20:40:58.024Z,29.99
2018-09-23T20:43:34.020Z,30.02
2018-09-23T20:46:10.209Z,30.03
2018-09-23T20:48:46.639Z,30.06
2018-09-23T20:51:23.053Z,30.09
2018-09-23T20:53:58.959Z,30.10
2018-09-23T20:56:35.470Z,30.14
2018-09-23T20:59:12.113Z,30.15
2018-09-23T21:01:48.188Z,30.17
2018-09-23T21:04:24.875Z,30.20
2018-09-23T21:07:01.310Z,30.21
2018-09-23T21:09:37.839Z,30.23
2018-09-23T21:12:14.177Z,30.24
2018-09-23T21:14:50.847Z,30.26
2018-09-23T21:17:27.178Z,30.28
2018-09-23T21:20:04.328Z,30.31
2018-09-23T21:22:40.853Z,30.33
2018-09-23T21:25:18.105Z,30.35
2018-09-23T21:27:55.411Z,30.37
2018-09-23T21:30:31.361Z,30.38
2018-09-23T21:33:07.846Z,30.41
2018-09-23T21:35:44.091Z,30.44
2018-09-23T21:38:20.183Z,30.46
2018-09-23T21:40:56.458Z,30.47
2018-09-23T21:43:33.286Z,30.49
2018-09-23T21:46:09.418Z,30.50
2018-09-23T21:48:45.835Z,30.52
2018-09-23T21:51:22.186Z,30.55
2018-09-23T21:53:58.697Z,30.56
2018-09-23T21:56:35.097Z,30.60
2018-09-23T21:59:11.451Z,30.61
2018-09-23T22:01:47.907Z,30.65
2018-09-23T22:04:24.575Z,30.66
2018-09-23T22:07:01.489Z,30.68
2018-09-23T22:09:37.859Z,30.70
2018-09-23T22:12:14.283Z,30.71
2018-09-23T22:14:50.721Z,30.73
2018-09-23T22:17:26.863Z,30.74
2018-09-23T22:20:03.535Z,30.76
2018-09-23T22:22:39.864Z,30.77
2018-09-23T22:25:16.194Z,30.80
2018-09-23T22:27:50.579Z,30.81
2018-09-23T22:30:26.896Z,30.82
2018-09-23T22:33:02.713Z,30.83
2018-09-23T22:35:38.634Z,30.85
2018-09-23T22:38:14.683Z,30.86
2018-09-23T22:40:50.869Z,30.88
2018-09-23T22:43:27.523Z,30.89
2018-09-23T22:46:04.060Z,30.90
2018-09-23T22:48:40.442Z,30.91
2018-09-23T22:51:16.695Z,30.91
2018-09-23T22:53:52.876Z,30.93
2018-09-23T22:56:28.876Z,30.94
2018-09-23T22:59:05.238Z,30.95
2018-09-23T23:01:41.117Z,30.95
2018-09-23T23:04:17.508Z,30.96
2018-09-23T23:06:53.510Z,30.95
2018-09-23T23:09:29.282Z,30.95
2018-09-23T23:12:05.597Z,30.95
2018-09-23T23:14:41.790Z,30.95
2018-09-23T23:17:18.068Z,30.97
2018-09-23T23:19:53.896Z,30.96
2018-09-23T23:22:30.251Z,30.96
2018-09-23T23:25:06.803Z,30.96
2018-09-23T23:27:43.338Z,30.98
2018-09-23T23:30:19.487Z,30.97
2018-09-23T23:32:55.610Z,30.98
2018-09-23T23:35:32.075Z,30.99
2018-09-23T23:38:08.074Z,30.98
2018-09-23T23:40:44.531Z,30.97
2018-09-23T23:43:21.323Z,30.98
2018-09-23T23:45:58.587Z,30.99
2018-09-23T23:48:35.091Z,30.97
2018-09-23T23:51:11.719Z,30.98
2018-09-23T23:53:48.500Z,30.97
2018-09-23T23:56:25.686Z,30.98
2018-09-23T23:59:02.023Z,30.98
